Time;durP1;ratioP1;P1;durP2;ratioP2;P2;SDS_P1;SDS_P2;PMS_P1;PMS_P2;Temp;Humidity;BMP_temperature;BMP_pressure;BME280_temperature;BME280_humidity;BME280_pressure;Samples;Min_cycle;Max_cycle;Signal;HPM_P1;HPM_P2
2023/08/29 00:00:45;;;;;;;6.30;1.90;;;;;;;13.71;98.01;99571.11;107700;1267;22525;-77
2023/08/29 00:03:30;;;;;;;5.20;1.80;;;;;;;13.64;98.17;99606.43;107664;1269;22647;-76
2023/08/29 00:06:05;;;;;;;7.40;2.10;;;;;;;13.62;98.35;99602.30;107634;1266;22534;-77
2023/08/29 00:08:36;;;;;;;8.10;2.30;;;;;;;13.64;98.68;99585.21;110524;1269;22315;-78
2023/08/29 00:11:07;;;;;;;5.20;1.80;;;;;;;13.64;98.63;99578.48;110535;1262;22340;-78
2023/08/29 00:13:37;;;;;;;6.80;2.00;;;;;;;13.62;98.54;99586.09;110561;1265;22319;-78
2023/08/29 00:16:08;;;;;;;7.30;2.00;;;;;;;13.59;98.86;99556.31;110511;1267;22149;-79
2023/08/29 00:18:39;;;;;;;10.10;2.00;;;;;;;13.56;99.00;99586.63;110527;1267;22265;-79
2023/08/29 00:21:09;;;;;;;6.80;2.00;;;;;;;13.56;99.16;99605.33;110532;1269;22148;-79
2023/08/29 00:23:40;;;;;;;8.50;1.90;;;;;;;13.58;99.47;99611.65;110471;1266;22954;-79
2023/08/29 00:26:11;;;;;;;8.10;1.60;;;;;;;13.59;99.20;99657.27;110521;1272;22327;-77
2023/08/29 00:28:42;;;;;;;8.30;2.10;;;;;;;13.60;99.24;99710.57;110538;1266;22845;-78
2023/08/29 00:31:12;;;;;;;13.00;1.80;;;;;;;13.62;99.42;99652.52;110527;1272;22168;-78
2023/08/29 00:33:43;;;;;;;10.20;2.10;;;;;;;13.64;99.79;99634.52;110534;1273;22103;-78
2023/08/29 00:36:14;;;;;;;8.20;1.90;;;;;;;13.68;99.99;99649.61;110538;1266;22302;-79
2023/08/29 00:38:44;;;;;;;6.80;1.50;;;;;;;13.70;99.72;99629.96;110566;1273;22341;-81
2023/08/29 00:41:15;;;;;;;8.80;1.80;;;;;;;13.71;99.90;99601.20;110548;1267;22493;-78
2023/08/29 00:43:46;;;;;;;6.70;2.30;;;;;;;13.72;99.83;99572.69;110522;1266;23577;-79
2023/08/29 00:46:17;;;;;;;7.40;1.60;;;;;;;13.72;99.94;99544.12;110510;1273;22180;-79
2023/08/29 00:48:49;;;;;;;5.80;1.70;;;;;;;13.71;99.98;99549.54;110556;1266;22329;-78
2023/08/29 00:51:20;;;;;;;6.60;2.30;;;;;;;13.71;100.00;99611.55;110545;1266;22191;-78
2023/08/29 00:53:51;;;;;;;7.20;2.60;;;;;;;13.74;100.00;99626.84;110591;1267;22321;-79
2023/08/29 00:56:22;;;;;;;8.40;2.30;;;;;;;13.73;100.00;99599.45;110577;1269;22455;-80
2023/08/29 00:58:53;;;;;;;9.20;2.50;;;;;;;13.75;100.00;99593.64;109251;1266;22507;-81
2023/08/29 01:01:24;;;;;;;5.30;1.80;;;;;;;13.76;100.00;99592.04;109845;1273;22540;-80
2023/08/29 01:03:55;;;;;;;4.80;1.70;;;;;;;13.77;100.00;99585.56;108948;1273;25917;-79
2023/08/29 01:06:26;;;;;;;7.80;2.10;;;;;;;13.79;100.00;99590.20;108329;1266;22648;-80
2023/08/29 01:08:58;;;;;;;9.20;2.50;;;;;;;13.80;100.00;99597.13;108237;1267;22534;-80
2023/08/29 01:11:35;;;;;;;8.60;2.40;;;;;;;13.83;100.00;99600.59;108267;1266;22576;-79
2023/08/29 01:14:12;;;;;;;6.20;2.20;;;;;;;13.83;100.00;99618.09;108071;1266;22539;-79
2023/08/29 01:16:50;;;;;;;6.20;2.10;;;;;;;13.84;100.00;99622.93;107738;1266;23095;-79
2023/08/29 01:19:24;;;;;;;6.70;1.90;;;;;;;13.86;100.00;99616.64;107690;1265;22515;-79
2023/08/29 01:22:14;;;;;;;6.70;2.10;;;;;;;13.86;100.00;99600.88;110511;1265;22301;-77
2023/08/29 01:24:50;;;;;;;8.30;2.10;;;;;;;13.88;100.00;99581.33;110515;1266;22331;-78
2023/08/29 01:27:21;;;;;;;7.20;2.10;;;;;;;13.90;100.00;99548.42;110535;1273;22199;-78
2023/08/29 01:29:53;;;;;;;7.90;2.00;;;;;;;13.90;100.00;99528.63;110514;1273;22318;-77
2023/08/29 01:32:26;;;;;;;7.70;2.20;;;;;;;13.86;100.00;99533.54;110497;1266;23359;-77
2023/08/29 01:34:58;;;;;;;10.90;2.50;;;;;;;13.81;100.00;99520.36;110509;1266;22154;-77
2023/08/29 01:37:29;;;;;;;9.40;2.50;;;;;;;13.78;100.00;99517.36;110552;1266;22471;-77
2023/08/29 01:40:00;;;;;;;10.00;2.40;;;;;;;13.74;100.00;99500.05;110530;1273;22177;-79
2023/08/29 01:42:30;;;;;;;6.30;2.00;;;;;;;13.71;100.00;99471.40;110517;1269;22284;-79
2023/08/29 01:45:01;;;;;;;8.90;2.40;;;;;;;13.70;100.00;99411.13;110526;1266;22143;-79
2023/08/29 01:47:32;;;;;;;9.80;2.20;;;;;;;13.67;100.00;99357.61;110553;1268;22981;-78
2023/08/29 01:50:04;;;;;;;8.60;2.60;;;;;;;13.61;100.00;99330.32;110552;1269;22398;-78
2023/08/29 01:52:35;;;;;;;7.20;2.10;;;;;;;13.58;100.00;99289.89;110514;1273;22388;-78
2023/08/29 01:55:07;;;;;;;7.00;2.00;;;;;;;13.59;100.00;99269.15;110402;1267;200587;-80
2023/08/29 01:57:39;;;;;;;7.30;2.20;;;;;;;13.55;100.00;99255.26;110608;1266;22210;-80
2023/08/29 02:00:12;;;;;;;5.50;1.70;;;;;;;13.50;100.00;99240.17;110561;1266;22404;-80
2023/08/29 02:02:43;;;;;;;7.60;2.00;;;;;;;13.45;100.00;99231.64;110571;1273;22199;-80
2023/08/29 02:05:13;;;;;;;8.00;1.30;;;;;;;13.41;100.00;99212.20;110561;1269;22121;-81
2023/08/29 02:07:44;;;;;;;6.90;1.30;;;;;;;13.40;100.00;99220.73;110550;1266;22223;-80
2023/08/29 02:10:15;;;;;;;5.80;1.40;;;;;;;13.41;100.00;99228.97;110579;1273;22195;-80
2023/08/29 02:12:46;;;;;;;4.60;1.10;;;;;;;13.46;100.00;99266.65;110545;1273;23209;-80
2023/08/29 02:15:17;;;;;;;3.90;1.10;;;;;;;13.48;100.00;99251.80;110568;1273;22341;-79
2023/08/29 02:17:48;;;;;;;3.20;1.00;;;;;;;13.47;100.00;99220.26;110506;1262;22304;-79
2023/08/29 02:20:18;;;;;;;3.00;0.80;;;;;;;13.45;100.00;99229.15;110526;1262;22279;-78
2023/08/29 02:22:49;;;;;;;5.30;0.80;;;;;;;13.42;100.00;99226.83;110514;1269;23038;-78
2023/08/29 02:25:20;;;;;;;5.50;0.80;;;;;;;13.40;100.00;99218.13;110501;1263;22215;-80
2023/08/29 02:27:50;;;;;;;2.90;0.70;;;;;;;13.36;100.00;99225.85;110558;1273;22463;-78
2023/08/29 02:30:21;;;;;;;3.10;0.60;;;;;;;13.34;100.00;99228.42;110562;1266;22197;-78
2023/08/29 02:32:52;;;;;;;1.90;0.40;;;;;;;13.33;100.00;99226.65;110505;1266;22310;-80
2023/08/29 02:35:22;;;;;;;2.90;0.50;;;;;;;13.33;100.00;99223.45;110583;1269;22364;-78
2023/08/29 02:37:53;;;;;;;1.70;0.50;;;;;;;13.31;100.00;99212.96;110536;1266;22415;-78
2023/08/29 02:40:24;;;;;;;3.10;0.70;;;;;;;13.29;100.00;99202.27;110538;1269;23094;-79
2023/08/29 02:42:54;;;;;;;1.70;0.50;;;;;;;13.29;100.00;99196.61;110503;1273;22299;-78
2023/08/29 02:45:25;;;;;;;3.70;0.70;;;;;;;13.28;100.00;99195.20;110550;1267;22317;-79
2023/08/29 02:47:56;;;;;;;2.00;0.70;;;;;;;13.29;100.00;99179.54;110504;1273;23198;-79
2023/08/29 02:50:26;;;;;;;4.50;0.70;;;;;;;13.29;100.00;99183.36;110545;1270;22317;-79
2023/08/29 02:52:57;;;;;;;2.00;0.50;;;;;;;13.30;100.00;99201.45;110524;1266;22424;-78
2023/08/29 02:55:28;;;;;;;4.20;0.70;;;;;;;13.32;100.00;99215.95;110548;1267;22361;-79
2023/08/29 02:57:59;;;;;;;1.80;0.60;;;;;;;13.34;100.00;99217.47;110555;1269;22364;-79
2023/08/29 03:00:29;;;;;;;4.20;0.70;;;;;;;13.36;100.00;99243.44;110535;1273;22355;-80
2023/08/29 03:03:00;;;;;;;2.70;0.60;;;;;;;13.39;100.00;99247.30;110524;1261;22172;-81
2023/08/29 03:05:31;;;;;;;4.40;0.60;;;;;;;13.41;100.00;99239.21;110552;1270;22369;-79
2023/08/29 03:08:04;;;;;;;2.10;0.50;;;;;;;13.46;100.00;99226.39;110582;1266;22940;-78
2023/08/29 03:10:38;;;;;;;1.60;0.70;;;;;;;13.47;100.00;99207.91;110559;1267;22361;-79
2023/08/29 03:13:09;;;;;;;3.30;0.60;;;;;;;13.50;100.00;99203.88;110495;1266;23363;-79
2023/08/29 03:15:40;;;;;;;2.80;0.70;;;;;;;13.51;100.00;99199.08;110522;1267;22195;-79
2023/08/29 03:18:11;;;;;;;2.40;0.60;;;;;;;13.50;100.00;99211.66;110544;1272;22365;-79
2023/08/29 03:20:43;;;;;;;1.90;0.70;;;;;;;13.53;100.00;99221.82;110524;1269;22158;-79
2023/08/29 03:23:14;;;;;;;3.00;0.70;;;;;;;13.55;100.00;99208.98;110530;1266;22455;-78
2023/08/29 03:25:45;;;;;;;3.50;0.50;;;;;;;13.55;100.00;99215.63;110538;1266;22320;-78
2023/08/29 03:28:16;;;;;;;1.60;0.50;;;;;;;13.57;100.00;99205.02;110549;1273;22175;-78
2023/08/29 03:30:47;;;;;;;1.90;0.50;;;;;;;13.58;100.00;99188.70;110537;1269;22299;-80
2023/08/29 03:33:17;;;;;;;1.80;0.70;;;;;;;13.60;100.00;99175.21;110545;1269;22409;-79
2023/08/29 03:35:57;;;;;;;2.80;0.80;;;;;;;13.63;100.00;99163.20;110534;1270;22402;-78
2023/08/29 03:38:28;;;;;;;5.50;0.80;;;;;;;13.66;100.00;99159.91;110546;1269;22161;-78
2023/08/29 03:40:59;;;;;;;3.60;0.70;;;;;;;13.68;100.00;99154.17;110560;1268;22312;-78
2023/08/29 03:43:31;;;;;;;4.10;0.90;;;;;;;13.68;100.00;99152.63;110581;1269;22145;-78
2023/08/29 03:46:03;;;;;;;2.60;0.80;;;;;;;13.70;100.00;99159.61;110540;1269;22280;-78
2023/08/29 03:48:35;;;;;;;2.30;0.60;;;;;;;13.71;100.00;99158.84;110559;1269;22975;-78
2023/08/29 03:51:06;;;;;;;3.30;0.90;;;;;;;13.71;100.00;99150.98;110519;1273;22239;-78
2023/08/29 03:53:38;;;;;;;1.90;0.70;;;;;;;13.73;100.00;99148.83;110486;1272;23464;-80
2023/08/29 03:56:10;;;;;;;2.30;0.70;;;;;;;13.74;100.00;99147.88;110528;1273;22217;-78
2023/08/29 03:58:41;;;;;;;3.60;0.80;;;;;;;13.75;100.00;99157.80;110580;1266;22165;-82
2023/08/29 04:01:12;;;;;;;3.00;0.80;;;;;;;13.77;100.00;99155.46;108500;1267;22553;-77
2023/08/29 04:03:43;;;;;;;2.90;0.80;;;;;;;13.76;100.00;99162.64;107539;1260;22636;-77
2023/08/29 04:06:14;;;;;;;1.90;0.60;;;;;;;13.75;100.00;99198.67;107545;1269;25337;-78
2023/08/29 04:08:45;;;;;;;2.80;0.80;;;;;;;13.77;100.00;99216.75;107589;1265;24427;-78
2023/08/29 04:11:15;;;;;;;4.30;0.90;;;;;;;13.81;100.00;99236.30;107636;1267;22981;-80
2023/08/29 04:13:46;;;;;;;6.50;1.00;;;;;;;13.85;100.00;99245.34;107766;1267;22811;-78
2023/08/29 04:16:17;;;;;;;3.40;0.90;;;;;;;13.87;100.00;99251.14;107842;1267;22517;-78
2023/08/29 04:18:48;;;;;;;3.50;1.10;;;;;;;13.90;100.00;99249.58;107809;1267;25366;-77
2023/08/29 04:21:18;;;;;;;3.50;0.90;;;;;;;13.91;100.00;99249.86;107876;1266;22951;-77
2023/08/29 04:23:49;;;;;;;4.20;1.00;;;;;;;13.93;100.00;99247.71;107773;1266;22579;-78
2023/08/29 04:26:21;;;;;;;4.00;1.00;;;;;;;13.94;100.00;99235.85;107655;1267;22528;-77
2023/08/29 04:28:51;;;;;;;10.20;1.30;;;;;;;13.96;100.00;99229.61;107755;1266;22571;-78
2023/08/29 04:31:22;;;;;;;3.80;1.10;;;;;;;13.98;100.00;99234.18;107874;1269;22544;-80
2023/08/29 04:33:53;;;;;;;2.20;0.80;;;;;;;13.99;100.00;99235.73;107904;1266;22717;-79
2023/08/29 04:36:25;;;;;;;2.30;0.90;;;;;;;14.00;100.00;99242.48;107796;1257;25510;-78
2023/08/29 04:38:56;;;;;;;4.30;1.10;;;;;;;14.01;100.00;99265.27;107816;1267;22525;-80
2023/08/29 04:41:26;;;;;;;3.10;0.90;;;;;;;14.03;100.00;99278.97;107940;1267;22533;-78
2023/08/29 04:43:57;;;;;;;9.50;1.30;;;;;;;14.05;100.00;99280.13;108130;1267;25394;-78
2023/08/29 04:46:28;;;;;;;3.90;1.10;;;;;;;14.07;100.00;99269.15;108084;1269;22528;-79
2023/08/29 04:48:58;;;;;;;3.60;0.70;;;;;;;14.08;100.00;99247.84;108709;1273;24180;-79
2023/08/29 04:51:30;;;;;;;4.40;1.00;;;;;;;14.08;100.00;99240.61;109333;1269;24337;-79
2023/08/29 04:54:01;;;;;;;4.40;1.30;;;;;;;14.07;100.00;99262.20;108545;1269;22548;-79
2023/08/29 04:56:32;;;;;;;4.50;1.10;;;;;;;14.09;100.00;99294.89;107580;1266;25205;-76
2023/08/29 04:59:02;;;;;;;3.50;1.00;;;;;;;14.07;100.00;99315.21;107674;1267;22567;-78
2023/08/29 05:01:33;;;;;;;5.00;1.00;;;;;;;14.06;100.00;99356.86;107748;1265;25290;-77
2023/08/29 05:04:04;;;;;;;3.50;1.10;;;;;;;14.07;100.00;99379.98;107820;1257;22566;-77
2023/08/29 05:06:35;;;;;;;3.40;0.90;;;;;;;14.08;100.00;99356.81;107784;1269;22522;-78
2023/08/29 05:09:06;;;;;;;3.20;1.10;;;;;;;14.08;100.00;99332.16;107768;1266;25366;-79
2023/08/29 05:11:37;;;;;;;4.70;1.10;;;;;;;14.07;100.00;99301.74;107691;1273;22535;-77
2023/08/29 05:14:08;;;;;;;3.20;0.90;;;;;;;14.06;100.00;99295.47;107644;1272;27546;-78
2023/08/29 05:16:38;;;;;;;4.90;0.80;;;;;;;14.06;100.00;99277.84;107607;1267;25207;-78
2023/08/29 05:19:09;;;;;;;3.00;0.90;;;;;;;14.03;100.00;99247.09;107622;1262;22650;-77
2023/08/29 05:21:40;;;;;;;3.30;0.90;;;;;;;14.00;100.00;99249.38;107685;1266;25271;-77
2023/08/29 05:24:11;;;;;;;3.00;1.00;;;;;;;13.97;100.00;99251.14;107783;1267;26034;-78
2023/08/29 05:26:41;;;;;;;3.50;1.00;;;;;;;13.96;100.00;99240.12;107753;1266;23333;-77
2023/08/29 05:29:12;;;;;;;2.70;0.90;;;;;;;13.93;100.00;99207.30;107721;1267;26543;-77
2023/08/29 05:31:43;;;;;;;3.10;0.80;;;;;;;13.89;100.00;99186.08;107746;1266;23208;-78
2023/08/29 05:34:14;;;;;;;9.20;0.80;;;;;;;13.85;100.00;99176.98;107643;1266;22529;-78
2023/08/29 05:36:46;;;;;;;5.20;1.00;;;;;;;13.83;100.00;99170.39;107608;1266;22520;-79
2023/08/29 05:39:17;;;;;;;6.90;1.50;;;;;;;13.79;100.00;99160.38;107686;1267;26543;-77
2023/08/29 05:41:48;;;;;;;3.70;1.20;;;;;;;13.77;100.00;99154.67;107572;1266;22521;-78
2023/08/29 05:44:18;;;;;;;7.10;1.10;;;;;;;13.76;100.00;99150.45;107656;1266;22662;-77
2023/08/29 05:46:49;;;;;;;3.90;1.20;;;;;;;13.73;100.00;99147.98;107641;1267;22541;-78
2023/08/29 05:49:20;;;;;;;6.00;1.40;;;;;;;13.71;100.00;99173.05;108001;1267;23341;-77
2023/08/29 05:51:51;;;;;;;4.80;1.50;;;;;;;13.70;100.00;99182.34;107709;1266;22600;-79
2023/08/29 05:54:22;;;;;;;6.60;1.50;;;;;;;13.71;100.00;99181.27;107676;1267;25346;-78
2023/08/29 05:56:53;;;;;;;8.10;1.70;;;;;;;13.72;100.00;99171.15;107573;1265;24083;-78
2023/08/29 05:59:24;;;;;;;5.60;1.40;;;;;;;13.74;100.00;99164.51;107567;1270;22517;-77
2023/08/29 06:01:54;;;;;;;5.50;1.60;;;;;;;13.75;100.00;99195.35;107435;1267;22563;-77
2023/08/29 06:04:27;;;;;;;5.80;1.70;;;;;;;13.78;100.00;99227.80;107537;1272;23163;-77
2023/08/29 06:06:59;;;;;;;4.80;1.30;;;;;;;13.81;100.00;99240.63;107517;1266;22512;-77
2023/08/29 06:09:30;;;;;;;7.90;1.50;;;;;;;13.85;100.00;99250.90;107643;1271;25528;-78
2023/08/29 06:12:00;;;;;;;4.60;1.50;;;;;;;13.89;100.00;99247.03;107687;1266;24219;-78
2023/08/29 06:14:34;;;;;;;8.90;1.70;;;;;;;13.93;100.00;99243.77;107654;1272;24189;-78
2023/08/29 06:17:05;;;;;;;6.80;1.50;;;;;;;13.96;100.00;99248.95;107664;1269;22518;-78
2023/08/29 06:19:36;;;;;;;5.00;1.80;;;;;;;13.97;100.00;99246.80;107704;1267;23023;-78
2023/08/29 06:22:08;;;;;;;6.90;1.60;;;;;;;13.99;100.00;99257.69;107570;1272;25601;-78
2023/08/29 06:24:41;;;;;;;6.00;1.90;;;;;;;14.00;100.00;99260.23;107481;1269;22507;-77
2023/08/29 06:27:12;;;;;;;9.80;1.80;;;;;;;14.02;100.00;99275.88;107520;1267;24407;-78
2023/08/29 06:29:43;;;;;;;8.70;1.90;;;;;;;14.05;100.00;99279.02;107657;1267;23328;-78
2023/08/29 06:32:14;;;;;;;5.20;1.50;;;;;;;14.06;100.00;99281.71;107670;1269;22522;-77
2023/08/29 06:34:45;;;;;;;7.20;2.20;;;;;;;14.07;100.00;99271.84;107556;1273;22940;-78
2023/08/29 06:37:16;;;;;;;7.70;2.30;;;;;;;14.08;100.00;99265.61;107629;1266;22635;-78
2023/08/29 06:39:46;;;;;;;6.70;2.00;;;;;;;14.08;100.00;99271.11;107637;1266;24216;-78
2023/08/29 06:42:20;;;;;;;8.20;2.00;;;;;;;14.08;100.00;99275.20;107632;1269;22557;-78
2023/08/29 06:44:50;;;;;;;5.60;1.70;;;;;;;14.08;100.00;99274.64;107603;1272;22637;-79
2023/08/29 06:47:21;;;;;;;8.00;1.70;;;;;;;14.08;100.00;99279.70;107603;1272;25201;-78
2023/08/29 06:49:54;;;;;;;5.70;1.90;;;;;;;14.08;100.00;99284.89;107671;1267;22507;-78
2023/08/29 06:52:26;;;;;;;9.40;2.00;;;;;;;14.09;100.00;99284.69;107683;1267;24352;-78
2023/08/29 06:54:57;;;;;;;7.10;2.20;;;;;;;14.10;100.00;99279.81;107654;1267;22544;-78
2023/08/29 06:57:28;;;;;;;7.00;2.50;;;;;;;14.12;100.00;99278.36;107608;1266;24189;-78
2023/08/29 06:59:59;;;;;;;8.00;2.40;;;;;;;14.13;100.00;99270.04;107634;1269;22536;-78
2023/08/29 07:02:30;;;;;;;9.60;2.90;;;;;;;14.12;100.00;99266.42;107705;1266;22522;-77
2023/08/29 07:05:00;;;;;;;6.40;2.20;;;;;;;14.10;100.00;99272.42;107607;1267;22566;-77
2023/08/29 07:07:31;;;;;;;10.60;3.00;;;;;;;14.09;100.00;99272.64;107554;1258;22557;-78
2023/08/29 07:10:02;;;;;;;10.00;3.50;;;;;;;14.10;100.00;99282.38;107461;1270;24202;-78
2023/08/29 07:12:33;;;;;;;8.90;2.90;;;;;;;14.09;100.00;99277.95;107624;1269;22550;-78
2023/08/29 07:15:06;;;;;;;8.00;3.00;;;;;;;14.09;100.00;99276.16;110541;1273;22304;-78
2023/08/29 07:17:36;;;;;;;10.40;3.90;;;;;;;14.08;100.00;99279.38;110543;1267;22119;-79
2023/08/29 07:20:10;;;;;;;10.80;3.20;;;;;;;14.08;100.00;99281.68;110561;1266;22299;-78
2023/08/29 07:22:43;;;;;;;8.20;3.00;;;;;;;14.09;100.00;99278.25;110539;1266;23257;-78
2023/08/29 07:25:14;;;;;;;9.20;3.90;;;;;;;14.11;100.00;99272.02;110559;1269;23088;-78
2023/08/29 07:27:45;;;;;;;13.90;4.20;;;;;;;14.14;100.00;99270.65;110563;1266;22215;-78
2023/08/29 07:30:16;;;;;;;10.60;4.30;;;;;;;14.16;100.00;99276.84;110599;1272;22165;-78
2023/08/29 07:32:47;;;;;;;8.90;3.30;;;;;;;14.19;100.00;99283.91;110578;1269;22330;-78
2023/08/29 07:35:18;;;;;;;9.70;3.80;;;;;;;14.23;100.00;99284.95;110552;1270;22208;-78
2023/08/29 07:37:51;;;;;;;8.90;3.30;;;;;;;14.27;100.00;99282.34;110547;1267;22267;-78
2023/08/29 07:40:21;;;;;;;10.60;4.20;;;;;;;14.31;100.00;99282.38;110551;1273;22295;-78
2023/08/29 07:42:53;;;;;;;10.90;3.50;;;;;;;14.33;100.00;99279.50;110556;1266;22166;-79
2023/08/29 07:45:23;;;;;;;8.40;3.30;;;;;;;14.35;100.00;99269.77;110547;1273;22296;-78
2023/08/29 07:47:54;;;;;;;9.30;3.30;;;;;;;14.38;100.00;99281.33;110516;1267;22331;-79
2023/08/29 07:50:25;;;;;;;7.70;2.90;;;;;;;14.42;100.00;99292.20;110453;1265;22242;-79
2023/08/29 07:52:56;;;;;;;10.90;3.50;;;;;;;14.48;100.00;99300.58;110527;1273;22777;-78
2023/08/29 07:55:26;;;;;;;8.20;2.70;;;;;;;14.51;100.00;99309.30;110544;1273;23187;-77
2023/08/29 07:57:57;;;;;;;9.40;3.60;;;;;;;14.53;100.00;99308.11;110542;1266;22260;-78
2023/08/29 08:00:29;;;;;;;8.30;3.10;;;;;;;14.53;100.00;99300.39;110527;1273;23149;-78
2023/08/29 08:03:00;;;;;;;12.10;3.50;;;;;;;14.55;100.00;99301.40;110530;1273;22168;-78
2023/08/29 08:05:31;;;;;;;10.00;3.00;;;;;;;14.60;100.00;99300.27;110515;1273;22365;-79
2023/08/29 08:08:02;;;;;;;10.10;2.90;;;;;;;14.64;100.00;99300.68;110494;1272;22242;-78
2023/08/29 08:10:33;;;;;;;8.90;2.30;;;;;;;14.65;100.00;99305.66;110519;1270;23022;-76
2023/08/29 08:13:04;;;;;;;8.50;2.70;;;;;;;14.68;100.00;99308.84;110534;1273;22209;-78
2023/08/29 08:15:35;;;;;;;6.60;2.60;;;;;;;14.74;100.00;99311.13;110542;1268;22436;-78
2023/08/29 08:18:08;;;;;;;7.30;2.10;;;;;;;14.81;100.00;99322.17;110493;1269;22459;-78
2023/08/29 08:20:39;;;;;;;7.90;2.30;;;;;;;14.86;100.00;99329.77;110494;1267;22442;-78
2023/08/29 08:23:09;;;;;;;8.10;2.50;;;;;;;14.91;100.00;99324.19;109271;1272;22542;-78
2023/08/29 08:25:43;;;;;;;7.60;2.00;;;;;;;14.98;100.00;99327.46;107676;1266;22938;-78
2023/08/29 08:28:15;;;;;;;9.40;2.30;;;;;;;15.05;100.00;99335.95;107898;1269;22517;-79
2023/08/29 08:30:46;;;;;;;6.80;2.00;;;;;;;15.11;100.00;99335.05;108163;1270;22583;-78
2023/08/29 08:33:17;;;;;;;7.70;2.30;;;;;;;15.18;100.00;99333.92;107959;1266;22544;-78
2023/08/29 08:35:48;;;;;;;9.30;2.50;;;;;;;15.27;100.00;99328.59;108000;1269;22534;-78
2023/08/29 08:38:18;;;;;;;8.80;1.90;;;;;;;15.31;100.00;99320.64;108238;1269;22741;-78
2023/08/29 08:40:49;;;;;;;10.50;2.00;;;;;;;15.37;100.00;99323.38;109171;1260;22560;-81
2023/08/29 08:43:20;;;;;;;7.50;2.00;;;;;;;15.46;100.00;99321.66;109730;1273;22553;-80
2023/08/29 08:45:52;;;;;;;7.10;2.00;;;;;;;15.52;100.00;99313.20;108808;1267;22982;-79
2023/08/29 08:48:23;;;;;;;6.80;2.10;;;;;;;15.57;100.00;99311.44;107751;1269;22515;-78
2023/08/29 08:50:55;;;;;;;6.10;1.70;;;;;;;15.64;100.00;99319.16;107684;1267;23355;-79
2023/08/29 08:53:28;;;;;;;9.30;2.20;;;;;;;15.66;100.00;99314.63;107605;1266;22521;-78
2023/08/29 08:56:00;;;;;;;12.20;3.00;;;;;;;15.64;100.00;99306.73;110581;1269;22308;-79
2023/08/29 08:58:31;;;;;;;8.70;2.30;;;;;;;15.70;100.00;99298.75;110544;1267;22415;-78
2023/08/29 09:01:02;;;;;;;8.40;2.10;;;;;;;15.78;100.00;99291.08;110544;1273;23475;-78
2023/08/29 09:03:34;;;;;;;8.90;2.30;;;;;;;15.81;100.00;99283.86;110549;1272;23624;-78
2023/08/29 09:06:06;;;;;;;9.80;2.10;;;;;;;15.88;100.00;99287.14;110517;1273;22819;-78
2023/08/29 09:08:38;;;;;;;10.80;2.50;;;;;;;15.96;100.00;99276.14;110512;1272;22622;-78
2023/08/29 09:11:10;;;;;;;8.50;2.30;;;;;;;16.04;100.00;99276.76;110478;1273;22282;-78
2023/08/29 09:13:49;;;;;;;10.00;2.80;;;;;;;16.13;100.00;99269.45;110489;1273;22297;-78
2023/08/29 09:16:23;;;;;;;7.90;2.20;;;;;;;16.20;100.00;99273.63;110527;1269;22337;-79
2023/08/29 09:18:55;;;;;;;10.20;2.50;;;;;;;16.25;100.00;99284.30;110496;1266;22913;-80
2023/08/29 09:21:29;;;;;;;7.70;2.20;;;;;;;16.28;100.00;99292.17;110514;1266;22800;-78
2023/08/29 09:24:00;;;;;;;7.10;2.40;;;;;;;16.33;100.00;99278.10;110446;1269;23297;-79
2023/08/29 09:26:34;;;;;;;11.10;2.30;;;;;;;16.41;100.00;99280.52;110512;1270;22466;-78
2023/08/29 09:29:19;;;;;;;12.30;2.70;;;;;;;16.46;100.00;99290.86;110549;1270;22158;-79
2023/08/29 09:31:51;;;;;;;7.90;1.90;;;;;;;16.47;100.00;99298.52;110465;1271;22416;-79
2023/08/29 09:34:31;;;;;;;7.80;2.10;;;;;;;16.46;100.00;99291.30;110518;1267;22301;-78
2023/08/29 09:37:06;;;;;;;6.00;1.90;;;;;;;16.46;100.00;99282.55;110526;1270;22137;-78
2023/08/29 09:39:38;;;;;;;11.10;2.50;;;;;;;16.46;100.00;99273.99;110577;1273;22368;-78
2023/08/29 09:42:10;;;;;;;7.30;2.10;;;;;;;16.44;100.00;99273.33;110509;1267;22267;-78
2023/08/29 09:44:43;;;;;;;10.30;2.50;;;;;;;16.44;100.00;99280.95;110562;1273;22120;-79
2023/08/29 09:47:16;;;;;;;7.80;2.00;;;;;;;16.44;100.00;99287.83;110509;1267;22859;-78
2023/08/29 09:49:48;;;;;;;8.00;2.40;;;;;;;16.48;100.00;99293.33;110577;1273;22126;-78
2023/08/29 09:52:19;;;;;;;7.70;2.20;;;;;;;16.54;100.00;99309.05;110470;1267;22168;-78
2023/08/29 09:54:52;;;;;;;7.00;2.30;;;;;;;16.59;100.00;99307.77;110590;1273;22135;-78
2023/08/29 09:57:25;;;;;;;10.10;2.40;;;;;;;16.61;100.00;99306.86;110541;1273;22155;-79
2023/08/29 10:00:01;;;;;;;8.40;2.50;;;;;;;16.63;100.00;99299.95;110594;1273;22320;-78
2023/08/29 10:02:32;;;;;;;9.10;1.90;;;;;;;16.68;100.00;99290.73;110616;1273;22779;-78
2023/08/29 10:05:08;;;;;;;8.70;2.20;;;;;;;16.72;100.00;99300.17;110543;1271;22305;-78
2023/08/29 10:07:44;;;;;;;8.70;2.30;;;;;;;16.71;100.00;99312.34;110611;1273;22234;-78
2023/08/29 10:10:15;;;;;;;8.40;2.00;;;;;;;16.70;100.00;99305.04;110586;1272;22153;-78
2023/08/29 10:12:47;;;;;;;10.10;2.60;;;;;;;16.69;100.00;99295.98;110598;1261;22472;-78
2023/08/29 10:15:20;;;;;;;10.00;2.90;;;;;;;16.72;100.00;99300.48;110600;1258;22393;-78
2023/08/29 10:17:53;;;;;;;9.90;2.60;;;;;;;16.74;100.00;99293.33;110597;1270;22957;-78
2023/08/29 10:20:28;;;;;;;8.80;2.00;;;;;;;16.75;100.00;99286.64;110555;1268;22207;-79
2023/08/29 10:23:01;;;;;;;14.10;2.80;;;;;;;16.73;100.00;99295.95;110558;1266;22320;-78
2023/08/29 10:25:34;;;;;;;10.20;2.70;;;;;;;16.75;100.00;99290.69;110515;1267;23143;-78
2023/08/29 10:28:07;;;;;;;9.20;2.20;;;;;;;16.71;100.00;99283.34;110526;1267;22352;-78
2023/08/29 10:30:39;;;;;;;10.40;2.70;;;;;;;16.67;100.00;99287.63;110496;1273;22257;-78
2023/08/29 10:33:10;;;;;;;10.00;3.00;;;;;;;16.67;100.00;99289.73;110528;1268;22992;-78
2023/08/29 10:35:40;;;;;;;7.40;2.60;;;;;;;16.64;100.00;99302.13;110619;1273;22182;-78
2023/08/29 10:38:15;;;;;;;12.70;3.50;;;;;;;16.64;100.00;99305.93;110596;1273;22213;-79
2023/08/29 10:40:47;;;;;;;10.20;3.10;;;;;;;16.65;100.00;99305.08;110559;1272;22188;-78
2023/08/29 10:43:25;;;;;;;10.60;3.70;;;;;;;16.67;100.00;99304.09;110596;1267;22261;-78
2023/08/29 10:45:59;;;;;;;9.60;3.00;;;;;;;16.68;100.00;99307.38;110579;1270;22392;-78
2023/08/29 10:48:55;;;;;;;9.20;2.80;;;;;;;16.72;100.00;99303.86;110584;1273;22374;-78
2023/08/29 10:51:27;;;;;;;9.90;3.10;;;;;;;16.73;100.00;99294.88;110556;1270;22409;-78
2023/08/29 10:54:05;;;;;;;10.60;3.70;;;;;;;16.73;100.00;99285.45;110554;1267;22487;-79
2023/08/29 10:56:43;;;;;;;9.70;3.10;;;;;;;16.74;100.00;99286.77;110580;1273;22186;-78
2023/08/29 10:59:32;;;;;;;11.60;3.30;;;;;;;16.76;100.00;99292.05;110633;1272;22410;-78
2023/08/29 11:02:25;;;;;;;11.00;3.60;;;;;;;16.79;100.00;99308.80;110563;1273;22276;-78
2023/08/29 11:05:13;;;;;;;12.30;3.70;;;;;;;16.81;100.00;99310.90;110580;1267;22305;-79
2023/08/29 11:07:44;;;;;;;10.90;4.00;;;;;;;16.83;100.00;99308.25;110602;1267;23544;-78
2023/08/29 11:10:17;;;;;;;12.00;3.90;;;;;;;16.85;100.00;99303.95;110611;1267;22212;-80
2023/08/29 11:13:09;;;;;;;9.80;3.20;;;;;;;16.86;100.00;99304.68;110578;1272;22419;-78
2023/08/29 11:16:17;;;;;;;12.40;3.90;;;;;;;16.91;100.00;99305.30;110549;1273;22211;-79
2023/08/29 11:18:48;;;;;;;10.40;4.00;;;;;;;17.00;100.00;99309.66;110539;1272;22118;-78
2023/08/29 11:21:19;;;;;;;11.70;4.10;;;;;;;17.06;100.00;99309.20;110573;1273;22201;-78
2023/08/29 11:23:50;;;;;;;13.90;5.80;;;;;;;17.10;100.00;99307.97;110571;1267;22399;-78
2023/08/29 11:26:21;;;;;;;15.70;6.10;;;;;;;17.13;100.00;99308.84;110591;1273;23349;-80
2023/08/29 11:28:52;;;;;;;16.50;4.90;;;;;;;17.15;100.00;99313.98;110608;1266;22482;-79
2023/08/29 11:31:24;;;;;;;15.70;6.50;;;;;;;17.18;100.00;99326.15;110569;1267;22257;-78
2023/08/29 11:33:55;;;;;;;14.60;6.30;;;;;;;17.21;100.00;99330.14;110581;1267;22179;-78
2023/08/29 11:36:31;;;;;;;15.90;6.90;;;;;;;17.25;100.00;99338.20;110601;1267;22394;-78
2023/08/29 11:39:04;;;;;;;13.60;5.90;;;;;;;17.30;100.00;99337.67;110612;1265;22715;-78